KCSQ/CSQ METAR and TAF weather

Enter ICAO airport designator
Station Type Date Time Source
KCSQ METAR 2022/06/28 09:35 UTC NOAA

KCSQ 280935Z AUTO 19007KT 10SM CLR 14/10 A3024 RMK AO2


Station Type Date Time Source
KCSQ Decoded METAR 2022/06/28 09:35 UTC NOAA

Creston, IA, United States (KCSQ) 41-01N 094-22W
Jun 28, 2022 - 05:35 AM EDT / 2022.06.28 0935 UTC
Wind: from the S (190 degrees) at 8 MPH (7 KT):0
Visibility: 10 mile(s):0
Sky conditions: clear
Temperature: 57 F (14 C)
Dew Point: 50 F (10 C)
Relative Humidity: 76%
Pressure (altimeter): 30.24 in. Hg (1024 hPa)
ob: KCSQ 280935Z AUTO 19007KT 10SM CLR 14/10 A3024 RMK AO2
cycle: 9

Station Type Date Time Source
KCSQ TAF UTC NOAA

Error!

Example: see airport list